createdAt,value
2023-04-26T00:00:13.720Z,94583.00
2023-04-26T00:01:13.727Z,94583.00
2023-04-26T00:02:13.801Z,94585.00
2023-04-26T00:03:13.946Z,94583.00
2023-04-26T00:04:14.127Z,94583.00
2023-04-26T00:05:14.108Z,94583.00
2023-04-26T00:06:13.980Z,94583.00
2023-04-26T00:07:14.040Z,94585.00
2023-04-26T00:08:14.014Z,94581.00
2023-04-26T00:09:14.010Z,94581.00
2023-04-26T00:10:14.041Z,94581.00
2023-04-26T00:11:14.071Z,94579.00
2023-04-26T00:12:14.171Z,94579.00
2023-04-26T00:13:14.215Z,94577.00
2023-04-26T00:14:14.220Z,94579.00
2023-04-26T00:15:14.255Z,94581.00
2023-04-26T00:16:14.282Z,94581.00
2023-04-26T00:17:14.301Z,94579.00
2023-04-26T00:18:14.383Z,94577.00
2023-04-26T00:19:14.422Z,94579.00
2023-04-26T00:20:14.436Z,94583.00
2023-04-26T00:21:14.507Z,94583.00
2023-04-26T00:22:14.535Z,94581.00
2023-04-26T00:23:14.550Z,94587.00
2023-04-26T00:24:14.607Z,94587.00
2023-04-26T00:25:14.647Z,94585.00
2023-04-26T00:26:14.648Z,94585.00
2023-04-26T00:27:14.721Z,94585.00
2023-04-26T00:28:14.747Z,94583.00
2023-04-26T00:29:15.262Z,94581.00
2023-04-26T00:30:14.824Z,94579.00
2023-04-26T00:31:14.869Z,94581.00
2023-04-26T00:32:14.899Z,94583.00
2023-04-26T00:33:14.934Z,94583.00
2023-04-26T00:34:15.006Z,94585.00
2023-04-26T00:35:15.036Z,94585.00
2023-04-26T00:36:15.097Z,94587.00
2023-04-26T00:37:15.172Z,94585.00
2023-04-26T00:38:15.179Z,94585.00
2023-04-26T00:39:15.244Z,94585.00
2023-04-26T00:40:15.282Z,94583.00
2023-04-26T00:41:15.316Z,94583.00
2023-04-26T00:42:15.428Z,94579.00
2023-04-26T00:43:15.425Z,94577.00
2023-04-26T00:44:15.466Z,94573.00
2023-04-26T00:45:15.530Z,94573.00
2023-04-26T00:46:15.611Z,94569.00
2023-04-26T00:47:15.608Z,94567.00
2023-04-26T00:48:15.676Z,94563.00
2023-04-26T00:49:15.758Z,94563.00
2023-04-26T00:50:15.745Z,94563.00
2023-04-26T00:51:15.796Z,94561.00
2023-04-26T00:52:15.862Z,94561.00
2023-04-26T00:53:15.903Z,94559.00
2023-04-26T00:54:15.954Z,94561.00
2023-04-26T00:55:16.008Z,94561.00
2023-04-26T00:56:16.057Z,94563.00
2023-04-26T00:57:16.099Z,94563.00
2023-04-26T00:58:16.173Z,94567.00
2023-04-26T00:59:16.226Z,94567.00
2023-04-26T01:00:16.300Z,94565.00
2023-04-26T01:01:16.370Z,94561.00
2023-04-26T01:02:16.458Z,94561.00
2023-04-26T01:03:16.642Z,94559.00
2023-04-26T01:04:16.623Z,94559.00
2023-04-26T01:05:16.604Z,94561.00
2023-04-26T01:06:16.688Z,94563.00
2023-04-26T01:07:16.748Z,94567.00
2023-04-26T01:08:16.759Z,94565.00
2023-04-26T01:09:16.788Z,94567.00
2023-04-26T01:10:16.816Z,94565.00
2023-04-26T01:11:16.868Z,94563.00
2023-04-26T01:12:16.929Z,94561.00
2023-04-26T01:13:16.977Z,94559.00
2023-04-26T01:14:17.037Z,94557.00
2023-04-26T01:15:17.097Z,94557.00
2023-04-26T01:16:17.116Z,94555.00
2023-04-26T01:17:17.254Z,94559.00
2023-04-26T01:18:17.237Z,94559.00
2023-04-26T01:19:17.289Z,94559.00
2023-04-26T01:20:17.323Z,94559.00
2023-04-26T01:21:17.356Z,94559.00
2023-04-26T01:22:17.378Z,94557.00
2023-04-26T01:23:17.403Z,94559.00
2023-04-26T01:24:17.408Z,94559.00
2023-04-26T01:25:17.470Z,94559.00
2023-04-26T01:26:17.615Z,94559.00
2023-04-26T01:27:17.591Z,94559.00
2023-04-26T01:28:17.614Z,94559.00
2023-04-26T01:29:17.693Z,94559.00
2023-04-26T01:30:17.749Z,94561.00
2023-04-26T01:31:17.786Z,94563.00
2023-04-26T01:32:17.780Z,94565.00
2023-04-26T01:33:17.852Z,94561.00
2023-04-26T01:34:17.853Z,94565.00
2023-04-26T01:35:17.890Z,94565.00
2023-04-26T01:36:17.970Z,94565.00
2023-04-26T01:37:17.968Z,94567.00
2023-04-26T01:38:18.047Z,94565.00
2023-04-26T01:39:18.102Z,94567.00
2023-04-26T01:40:18.148Z,94567.00
2023-04-26T01:41:18.205Z,94569.00
2023-04-26T01:42:18.283Z,94571.00
2023-04-26T01:43:18.282Z,94571.00
2023-04-26T01:44:18.315Z,94571.00
2023-04-26T01:45:18.404Z,94569.00
2023-04-26T01:46:18.440Z,94569.00
2023-04-26T01:47:18.466Z,94571.00
2023-04-26T01:48:18.494Z,94573.00
2023-04-26T01:49:18.508Z,94571.00
2023-04-26T01:50:18.532Z,94573.00
2023-04-26T01:51:18.598Z,94573.00
2023-04-26T01:52:18.604Z,94571.00
2023-04-26T01:53:18.634Z,94573.00
2023-04-26T01:54:18.648Z,94573.00
2023-04-26T01:55:18.674Z,94573.00
2023-04-26T01:56:18.743Z,94575.00
2023-04-26T01:57:18.755Z,94573.00
2023-04-26T01:58:18.776Z,94575.00
2023-04-26T01:59:18.789Z,94573.00
2023-04-26T02:00:18.818Z,94575.00
2023-04-26T02:01:18.873Z,94575.00
2023-04-26T02:02:18.944Z,94577.00
2023-04-26T02:03:19.066Z,94577.00
2023-04-26T02:04:19.002Z,94577.00
2023-04-26T02:05:19.315Z,94575.00
2023-04-26T02:06:19.077Z,94577.00
2023-04-26T02:07:19.099Z,94581.00
2023-04-26T02:08:19.180Z,94581.00
2023-04-26T02:09:19.208Z,94583.00
2023-04-26T02:10:19.215Z,94579.00
2023-04-26T02:11:19.246Z,94575.00
2023-04-26T02:12:19.260Z,94579.00
2023-04-26T02:13:19.317Z,94579.00
2023-04-26T02:14:19.356Z,94579.00
2023-04-26T02:15:19.380Z,94577.00
2023-04-26T02:16:19.463Z,94577.00
2023-04-26T02:17:19.458Z,94577.00
2023-04-26T02:18:19.509Z,94571.00
2023-04-26T02:19:19.600Z,94573.00
2023-04-26T02:20:19.545Z,94569.00
2023-04-26T02:21:19.599Z,94567.00
2023-04-26T02:22:19.607Z,94567.00
2023-04-26T02:23:19.657Z,94565.00
2023-04-26T02:24:19.675Z,94563.00
2023-04-26T02:25:19.713Z,94565.00
2023-04-26T02:26:19.727Z,94563.00
2023-04-26T02:27:19.769Z,94565.00
2023-04-26T02:28:19.793Z,94565.00
2023-04-26T02:29:26.606Z,94567.00
2023-04-26T02:30:20.836Z,94563.00
2023-04-26T02:31:21.785Z,94565.00
2023-04-26T02:32:19.801Z,94565.00
2023-04-26T02:33:19.800Z,94565.00
2023-04-26T02:34:19.799Z,94565.00
2023-04-26T02:35:19.816Z,94565.00
2023-04-26T02:36:19.785Z,94565.00
2023-04-26T02:37:19.766Z,94563.00
2023-04-26T02:38:19.784Z,94563.00
2023-04-26T02:39:19.767Z,94561.00
2023-04-26T02:40:19.759Z,94563.00
2023-04-26T02:41:19.748Z,94561.00
2023-04-26T02:42:19.752Z,94561.00
2023-04-26T02:43:19.763Z,94561.00
2023-04-26T02:44:19.732Z,94563.00
2023-04-26T02:45:19.743Z,94565.00
2023-04-26T02:46:19.738Z,94563.00
2023-04-26T02:47:19.744Z,94565.00
2023-04-26T02:48:19.707Z,94563.00
2023-04-26T02:49:19.731Z,94563.00
2023-04-26T02:50:19.712Z,94565.00
2023-04-26T02:51:19.714Z,94565.00
2023-04-26T02:52:19.659Z,94565.00
2023-04-26T02:53:19.656Z,94565.00
2023-04-26T02:54:26.710Z,94565.00
2023-04-26T02:55:19.649Z,94565.00
2023-04-26T02:56:19.648Z,94563.00
2023-04-26T02:57:19.657Z,94559.00
2023-04-26T02:58:19.658Z,94559.00
2023-04-26T02:59:19.634Z,94557.00
2023-04-26T03:00:19.643Z,94557.00
2023-04-26T03:01:19.657Z,94555.00
2023-04-26T03:02:19.782Z,94557.00
2023-04-26T03:03:19.816Z,94553.00
2023-04-26T03:04:19.749Z,94553.00
2023-04-26T03:05:19.575Z,94553.00
2023-04-26T03:06:19.588Z,94553.00
2023-04-26T03:07:19.564Z,94557.00
2023-04-26T03:08:19.557Z,94555.00
2023-04-26T03:09:19.545Z,94557.00
2023-04-26T03:10:19.570Z,94553.00
2023-04-26T03:11:19.542Z,94555.00
2023-04-26T03:12:19.536Z,94551.00
2023-04-26T03:13:19.521Z,94553.00
2023-04-26T03:14:19.529Z,94551.00
2023-04-26T03:15:19.526Z,94555.00
2023-04-26T03:16:19.521Z,94557.00
2023-04-26T03:17:19.491Z,94557.00
2023-04-26T03:18:19.483Z,94557.00
2023-04-26T03:19:19.491Z,94555.00
2023-04-26T03:20:19.464Z,94555.00
2023-04-26T03:21:19.476Z,94557.00
2023-04-26T03:22:19.446Z,94559.00
2023-04-26T03:23:19.447Z,94561.00
2023-04-26T03:24:19.498Z,94559.00
2023-04-26T03:25:19.440Z,94561.00
2023-04-26T03:26:19.446Z,94559.00
2023-04-26T03:27:19.445Z,94559.00
2023-04-26T03:28:19.468Z,94561.00
2023-04-26T03:29:19.411Z,94561.00
2023-04-26T03:30:19.400Z,94559.00
2023-04-26T03:31:19.408Z,94559.00
2023-04-26T03:32:19.459Z,94559.00
2023-04-26T03:33:19.385Z,94559.00
2023-04-26T03:34:19.435Z,94557.00
2023-04-26T03:35:19.404Z,94557.00
2023-04-26T03:36:19.388Z,94555.00
2023-04-26T03:37:19.374Z,94557.00
2023-04-26T03:38:19.349Z,94557.00
2023-04-26T03:39:19.359Z,94557.00
2023-04-26T03:40:19.363Z,94563.00
2023-04-26T03:41:19.330Z,94559.00
2023-04-26T03:42:19.369Z,94563.00
2023-04-26T03:43:19.340Z,94563.00
2023-04-26T03:44:19.348Z,94561.00
2023-04-26T03:45:19.306Z,94559.00
2023-04-26T03:46:19.360Z,94557.00
2023-04-26T03:47:19.306Z,94563.00
2023-04-26T03:48:19.366Z,94561.00
2023-04-26T03:49:19.297Z,94561.00
2023-04-26T03:50:19.307Z,94561.00
2023-04-26T03:51:19.334Z,94563.00
2023-04-26T03:52:19.340Z,94565.00
2023-04-26T03:53:19.370Z,94565.00
2023-04-26T03:54:19.400Z,94563.00
2023-04-26T03:55:19.407Z,94565.00
2023-04-26T03:56:19.419Z,94567.00
2023-04-26T03:57:19.503Z,94571.00
2023-04-26T03:58:19.492Z,94571.00
2023-04-26T03:59:19.513Z,94569.00
2023-04-26T04:00:19.554Z,94571.00
2023-04-26T04:01:19.548Z,94571.00
2023-04-26T04:02:19.695Z,94575.00
2023-04-26T04:03:19.863Z,94579.00
2023-04-26T04:04:19.821Z,94581.00
2023-04-26T04:05:19.698Z,94581.00
2023-04-26T04:06:19.649Z,94577.00
2023-04-26T04:07:19.670Z,94577.00
2023-04-26T04:08:19.677Z,94577.00
2023-04-26T04:09:19.700Z,94579.00
2023-04-26T04:10:19.707Z,94581.00
2023-04-26T04:11:19.708Z,94581.00
2023-04-26T04:12:19.729Z,94583.00
2023-04-26T04:13:19.735Z,94577.00
2023-04-26T04:14:19.803Z,94581.00
2023-04-26T04:15:19.850Z,94581.00
2023-04-26T04:16:19.858Z,94583.00
2023-04-26T04:17:19.872Z,94585.00
2023-04-26T04:18:19.952Z,94583.00
2023-04-26T04:19:19.957Z,94581.00
2023-04-26T04:20:19.976Z,94581.00
2023-04-26T04:21:20.027Z,94581.00
2023-04-26T04:22:20.056Z,94583.00
2023-04-26T04:23:20.120Z,94581.00
2023-04-26T04:24:20.134Z,94581.00
2023-04-26T04:25:20.158Z,94585.00
2023-04-26T04:26:20.191Z,94585.00
2023-04-26T04:27:20.201Z,94585.00
2023-04-26T04:28:20.235Z,94588.00
2023-04-26T04:29:20.256Z,94587.00
2023-04-26T04:30:20.326Z,94590.00
2023-04-26T04:31:20.313Z,94592.00
2023-04-26T04:32:20.315Z,94592.00
2023-04-26T04:33:20.284Z,94592.00
2023-04-26T04:34:20.290Z,94596.00
2023-04-26T04:35:20.292Z,94596.00
2023-04-26T04:36:20.344Z,94594.00
2023-04-26T04:37:20.351Z,94594.00
2023-04-26T04:38:20.328Z,94596.00
2023-04-26T04:39:20.358Z,94598.00
2023-04-26T04:40:20.867Z,94596.00
2023-04-26T04:41:20.391Z,94598.00
2023-04-26T04:42:20.351Z,94598.00
2023-04-26T04:43:20.463Z,94600.00
2023-04-26T04:44:20.378Z,94602.00
2023-04-26T04:45:20.376Z,94602.00
2023-04-26T04:46:20.384Z,94602.00
2023-04-26T04:47:20.445Z,94604.00
2023-04-26T04:48:20.468Z,94606.00
2023-04-26T04:49:20.424Z,94610.00
2023-04-26T04:50:20.476Z,94610.00
2023-04-26T04:51:20.468Z,94610.00
2023-04-26T04:52:20.470Z,94610.00
2023-04-26T04:53:20.518Z,94614.00
2023-04-26T04:54:20.487Z,94612.00
2023-04-26T04:55:20.567Z,94618.00
2023-04-26T04:56:20.554Z,94616.00
2023-04-26T04:57:20.597Z,94618.00
2023-04-26T04:58:20.605Z,94620.00
2023-04-26T04:59:20.605Z,94620.00
2023-04-26T05:00:20.658Z,94620.00
2023-04-26T05:01:20.642Z,94626.00
2023-04-26T05:02:20.810Z,94626.00
2023-04-26T05:03:20.831Z,94624.00
2023-04-26T05:04:20.894Z,94626.00
2023-04-26T05:05:20.826Z,94624.00
2023-04-26T05:06:20.859Z,94626.00
2023-04-26T05:07:20.820Z,94626.00
2023-04-26T05:08:20.885Z,94626.00
2023-04-26T05:09:20.859Z,94626.00
2023-04-26T05:10:20.910Z,94626.00
2023-04-26T05:11:20.879Z,94628.00
2023-04-26T05:12:20.895Z,94626.00
2023-04-26T05:13:20.932Z,94628.00
2023-04-26T05:14:20.945Z,94630.00
2023-04-26T05:15:20.985Z,94628.00
2023-04-26T05:16:21.027Z,94628.00
2023-04-26T05:17:20.953Z,94628.00
2023-04-26T05:18:20.969Z,94632.00
2023-04-26T05:19:21.028Z,94632.00
2023-04-26T05:20:21.417Z,94630.00
2023-04-26T05:21:21.026Z,94632.00
2023-04-26T05:22:21.028Z,94628.00
2023-04-26T05:23:21.063Z,94628.00
2023-04-26T05:24:21.089Z,94632.00
2023-04-26T05:25:22.468Z,94628.00
2023-04-26T05:26:21.104Z,94632.00
2023-04-26T05:27:21.147Z,94630.00
2023-04-26T05:28:21.094Z,94630.00
2023-04-26T05:29:21.109Z,94630.00
2023-04-26T05:30:21.190Z,94635.00
2023-04-26T05:31:21.141Z,94639.00
2023-04-26T05:32:21.183Z,94637.00
2023-04-26T05:33:21.281Z,94639.00
2023-04-26T05:34:21.219Z,94641.00
2023-04-26T05:35:21.372Z,94641.00
2023-04-26T05:36:21.262Z,94639.00
2023-04-26T05:37:21.258Z,94641.00
2023-04-26T05:38:21.279Z,94639.00
2023-04-26T05:39:21.363Z,94649.00
2023-04-26T05:40:21.371Z,94639.00
2023-04-26T05:41:21.419Z,94637.00
2023-04-26T05:42:21.517Z,94639.00
2023-04-26T05:43:21.612Z,94639.00
2023-04-26T05:44:21.615Z,94641.00
2023-04-26T05:45:21.879Z,94651.00
2023-04-26T05:46:21.831Z,94649.00
2023-04-26T05:47:21.833Z,94649.00
2023-04-26T05:48:21.892Z,94641.00
2023-04-26T05:49:21.981Z,94649.00
2023-04-26T05:50:22.377Z,94649.00
2023-04-26T05:51:22.060Z,94649.00
2023-04-26T05:52:22.058Z,94641.00
2023-04-26T05:53:22.238Z,94651.00
2023-04-26T05:54:22.192Z,94653.00
2023-04-26T05:55:22.993Z,94651.00
2023-04-26T05:56:22.334Z,94651.00
2023-04-26T05:57:22.426Z,94651.00
2023-04-26T05:58:22.421Z,94653.00
2023-04-26T05:59:22.496Z,94655.00
2023-04-26T06:00:22.684Z,94657.00
2023-04-26T06:01:22.638Z,94655.00
2023-04-26T06:02:22.751Z,94657.00
2023-04-26T06:03:22.912Z,94657.00
2023-04-26T06:04:23.156Z,94657.00
2023-04-26T06:05:23.091Z,94657.00
2023-04-26T06:06:22.960Z,94655.00
2023-04-26T06:07:22.946Z,94655.00
2023-04-26T06:08:23.015Z,94653.00
2023-04-26T06:09:23.087Z,94655.00
2023-04-26T06:10:23.297Z,94657.00
2023-04-26T06:11:23.203Z,94657.00
2023-04-26T06:12:23.252Z,94659.00
2023-04-26T06:13:23.631Z,94659.00
2023-04-26T06:14:30.419Z,94659.00
2023-04-26T06:15:24.386Z,94661.00
2023-04-26T06:16:23.423Z,94661.00
2023-04-26T06:17:23.511Z,94663.00
2023-04-26T06:18:23.356Z,94665.00
2023-04-26T06:19:23.449Z,94661.00
2023-04-26T06:20:23.339Z,94661.00
2023-04-26T06:21:23.467Z,94661.00
2023-04-26T06:22:23.387Z,94659.00
2023-04-26T06:23:23.470Z,94659.00
2023-04-26T06:24:23.469Z,94665.00
2023-04-26T06:25:23.601Z,94663.00
2023-04-26T06:26:23.617Z,94663.00
2023-04-26T06:27:23.668Z,94661.00
2023-04-26T06:28:23.763Z,94661.00
2023-04-26T06:29:23.824Z,94663.00
2023-04-26T06:30:23.945Z,94663.00
2023-04-26T06:31:24.129Z,94663.00
2023-04-26T06:32:24.041Z,94663.00
2023-04-26T06:33:24.045Z,94665.00
2023-04-26T06:34:24.134Z,94665.00
2023-04-26T06:35:24.234Z,94665.00
2023-04-26T06:36:24.622Z,94665.00
2023-04-26T06:37:24.301Z,94667.00
2023-04-26T06:38:24.341Z,94665.00
2023-04-26T06:39:24.420Z,94667.00
2023-04-26T06:40:24.895Z,94663.00
2023-04-26T06:41:24.460Z,94667.00
2023-04-26T06:42:24.575Z,94669.00
2023-04-26T06:43:24.604Z,94671.00
2023-04-26T06:44:24.615Z,94671.00
2023-04-26T06:45:24.685Z,94669.00
2023-04-26T06:46:24.693Z,94669.00
2023-04-26T06:47:24.698Z,94669.00
2023-04-26T06:48:24.716Z,94665.00
2023-04-26T06:49:24.683Z,94665.00
2023-04-26T06:50:24.691Z,94665.00
2023-04-26T06:51:24.710Z,94667.00
2023-04-26T06:52:24.706Z,94667.00
2023-04-26T06:53:24.716Z,94665.00
2023-04-26T06:54:24.809Z,94667.00
2023-04-26T06:55:24.962Z,94667.00
2023-04-26T06:56:24.877Z,94669.00
2023-04-26T06:57:24.902Z,94669.00
2023-04-26T06:58:24.939Z,94669.00
2023-04-26T06:59:25.004Z,94667.00
2023-04-26T07:00:25.139Z,94663.00
2023-04-26T07:01:25.067Z,94663.00
2023-04-26T07:02:25.345Z,94665.00
2023-04-26T07:03:25.129Z,94661.00
2023-04-26T07:04:25.290Z,94659.00
2023-04-26T07:05:25.024Z,94659.00
2023-04-26T07:06:25.059Z,94663.00
2023-04-26T07:07:25.005Z,94657.00
2023-04-26T07:08:25.001Z,94657.00
2023-04-26T07:09:24.989Z,94659.00
2023-04-26T07:10:25.102Z,94661.00
2023-04-26T07:11:26.040Z,94661.00
2023-04-26T07:12:25.105Z,94663.00
2023-04-26T07:13:25.170Z,94663.00
2023-04-26T07:14:25.200Z,94661.00
2023-04-26T07:15:25.205Z,94659.00
2023-04-26T07:16:25.245Z,94659.00
2023-04-26T07:17:25.284Z,94661.00
2023-04-26T07:18:25.315Z,94659.00
2023-04-26T07:19:25.320Z,94661.00
2023-04-26T07:20:25.539Z,94659.00
2023-04-26T07:21:25.449Z,94659.00
2023-04-26T07:22:25.519Z,94661.00
2023-04-26T07:23:25.457Z,94657.00
2023-04-26T07:24:25.417Z,94657.00
2023-04-26T07:25:25.962Z,94655.00
2023-04-26T07:26:25.452Z,94651.00
2023-04-26T07:27:25.460Z,94653.00
2023-04-26T07:28:25.606Z,94651.00
2023-04-26T07:29:25.502Z,94651.00
2023-04-26T07:30:25.601Z,94653.00
2023-04-26T07:31:25.523Z,94655.00
2023-04-26T07:32:25.539Z,94653.00
2023-04-26T07:33:28.628Z,94653.00
2023-04-26T07:34:25.528Z,94655.00
2023-04-26T07:35:26.435Z,94653.00
2023-04-26T07:36:25.484Z,94655.00
2023-04-26T07:37:25.446Z,94655.00
2023-04-26T07:38:25.464Z,94657.00
2023-04-26T07:39:25.689Z,94653.00
2023-04-26T07:40:25.480Z,94649.00
2023-04-26T07:41:25.438Z,94649.00
2023-04-26T07:42:25.422Z,94641.00
2023-04-26T07:43:25.410Z,94639.00
2023-04-26T07:44:25.419Z,94639.00
2023-04-26T07:45:25.431Z,94639.00
2023-04-26T07:46:25.469Z,94641.00
2023-04-26T07:47:25.445Z,94639.00
2023-04-26T07:48:25.416Z,94641.00
2023-04-26T07:49:25.380Z,94639.00
2023-04-26T07:50:25.398Z,94639.00
2023-04-26T07:51:25.400Z,94637.00
2023-04-26T07:52:25.366Z,94637.00
2023-04-26T07:53:25.370Z,94639.00
2023-04-26T07:54:25.340Z,94639.00
2023-04-26T07:55:25.375Z,94649.00
2023-04-26T07:56:25.342Z,94649.00
2023-04-26T07:57:25.314Z,94641.00
2023-04-26T07:58:25.322Z,94639.00
2023-04-26T07:59:25.328Z,94637.00
2023-04-26T08:00:25.387Z,94637.00
2023-04-26T08:01:25.364Z,94634.00
2023-04-26T08:02:40.950Z,94637.00
2023-04-26T08:03:26.419Z,94635.00
2023-04-26T08:04:25.357Z,94635.00
2023-04-26T08:05:25.581Z,94639.00
2023-04-26T08:06:25.347Z,94637.00
2023-04-26T08:07:25.274Z,94637.00
2023-04-26T08:08:25.250Z,94637.00
2023-04-26T08:09:25.397Z,94639.00
2023-04-26T08:10:25.476Z,94634.00
2023-04-26T08:11:25.351Z,94634.00
2023-04-26T08:12:25.228Z,94634.00
2023-04-26T08:13:28.567Z,94628.00
2023-04-26T08:14:25.230Z,94626.00
2023-04-26T08:15:25.230Z,94626.00
2023-04-26T08:16:25.239Z,94624.00
2023-04-26T08:17:25.290Z,94626.00
2023-04-26T08:18:25.184Z,94624.00
2023-04-26T08:19:25.203Z,94622.00
2023-04-26T08:20:25.150Z,94624.00
2023-04-26T08:21:25.157Z,94624.00
2023-04-26T08:22:25.177Z,94622.00
2023-04-26T08:23:25.180Z,94618.00
2023-04-26T08:24:25.130Z,94618.00
2023-04-26T08:25:25.135Z,94614.00
2023-04-26T08:26:25.119Z,94612.00
2023-04-26T08:27:25.273Z,94614.00
2023-04-26T08:28:25.115Z,94614.00
2023-04-26T08:29:25.093Z,94614.00
2023-04-26T08:30:25.476Z,94616.00
2023-04-26T08:31:25.118Z,94618.00
2023-04-26T08:32:25.109Z,94612.00
2023-04-26T08:33:25.073Z,94614.00
2023-04-26T08:34:25.961Z,94612.00
2023-04-26T08:35:25.070Z,94614.00
2023-04-26T08:36:25.068Z,94614.00
2023-04-26T08:37:25.155Z,94610.00
2023-04-26T08:38:25.056Z,94610.00
2023-04-26T08:39:25.011Z,94612.00
2023-04-26T08:40:25.458Z,94610.00
2023-04-26T08:41:25.972Z,94610.00
2023-04-26T08:42:24.994Z,94608.00
2023-04-26T08:43:25.055Z,94606.00
2023-04-26T08:44:25.017Z,94604.00
2023-04-26T08:45:25.113Z,94610.00
2023-04-26T08:46:25.093Z,94606.00
2023-04-26T08:47:25.270Z,94608.00
2023-04-26T08:48:25.233Z,94608.00
2023-04-26T08:49:25.964Z,94608.00
2023-04-26T08:50:25.955Z,94604.00
2023-04-26T08:51:25.428Z,94600.00
2023-04-26T08:52:25.436Z,94598.00
2023-04-26T08:53:25.530Z,94596.00
2023-04-26T08:54:25.522Z,94594.00
2023-04-26T08:55:25.619Z,94592.00
2023-04-26T08:56:25.600Z,94592.00
2023-04-26T08:57:25.673Z,94588.00
2023-04-26T08:58:25.696Z,94590.00
2023-04-26T08:59:25.741Z,94592.00
2023-04-26T09:00:26.544Z,94590.00
2023-04-26T09:01:25.858Z,94588.00
2023-04-26T09:02:26.016Z,94588.00
2023-04-26T09:03:26.039Z,94588.00
2023-04-26T09:04:26.250Z,94587.00
2023-04-26T09:05:26.471Z,94587.00
2023-04-26T09:06:26.027Z,94588.00
2023-04-26T09:07:26.096Z,94587.00
2023-04-26T09:08:26.143Z,94588.00
2023-04-26T09:09:27.901Z,94587.00
2023-04-26T09:10:26.486Z,94587.00
2023-04-26T09:11:26.152Z,94581.00
2023-04-26T09:12:26.121Z,94579.00
2023-04-26T09:13:26.212Z,94577.00
2023-04-26T09:14:26.119Z,94573.00
2023-04-26T09:15:26.179Z,94573.00
2023-04-26T09:16:26.169Z,94573.00
2023-04-26T09:17:26.179Z,94573.00
2023-04-26T09:18:26.107Z,94571.00
2023-04-26T09:19:26.124Z,94573.00
2023-04-26T09:20:26.104Z,94573.00
2023-04-26T09:21:26.119Z,94569.00
2023-04-26T09:22:26.157Z,94569.00
2023-04-26T09:23:26.073Z,94565.00
2023-04-26T09:24:26.037Z,94565.00
2023-04-26T09:25:26.042Z,94563.00
2023-04-26T09:26:26.037Z,94561.00
2023-04-26T09:27:26.055Z,94559.00
2023-04-26T09:28:26.014Z,94559.00
2023-04-26T09:29:25.996Z,94563.00
2023-04-26T09:30:25.994Z,94559.00
2023-04-26T09:31:27.174Z,94555.00
2023-04-26T09:32:25.988Z,94557.00
2023-04-26T09:33:26.074Z,94555.00
2023-04-26T09:34:26.045Z,94555.00
2023-04-26T09:35:26.036Z,94557.00
2023-04-26T09:36:25.980Z,94559.00
2023-04-26T09:37:25.969Z,94557.00
2023-04-26T09:38:25.951Z,94555.00
2023-04-26T09:39:25.958Z,94551.00
2023-04-26T09:40:25.947Z,94549.00
2023-04-26T09:41:25.980Z,94549.00
2023-04-26T09:42:25.933Z,94549.00
2023-04-26T09:43:25.918Z,94547.00
2023-04-26T09:44:25.974Z,94549.00
2023-04-26T09:45:25.887Z,94547.00
2023-04-26T09:46:26.019Z,94543.00
2023-04-26T09:47:25.932Z,94543.00
2023-04-26T09:48:25.933Z,94539.00
2023-04-26T09:49:25.858Z,94543.00
2023-04-26T09:50:25.932Z,94539.00
2023-04-26T09:51:25.986Z,94537.00
2023-04-26T09:52:25.860Z,94537.00
2023-04-26T09:53:25.833Z,94541.00
2023-04-26T09:54:25.861Z,94539.00
2023-04-26T09:56:26.825Z,94539.00
2023-04-26T09:57:25.845Z,94537.00
2023-04-26T09:58:25.811Z,94533.00
2023-04-26T09:59:25.777Z,94533.00
2023-04-26T10:00:25.807Z,94532.00
2023-04-26T10:01:25.955Z,94530.00
2023-04-26T10:02:25.953Z,94526.00
2023-04-26T10:03:25.830Z,94524.00
2023-04-26T10:04:25.874Z,94522.00
2023-04-26T10:05:25.781Z,94522.00
2023-04-26T10:06:25.794Z,94520.00
2023-04-26T10:07:25.774Z,94520.00
2023-04-26T10:08:25.733Z,94524.00
2023-04-26T10:09:25.777Z,94520.00
2023-04-26T10:10:25.784Z,94522.00
2023-04-26T10:11:25.710Z,94522.00
2023-04-26T10:12:25.721Z,94522.00
2023-04-26T10:13:25.689Z,94520.00
2023-04-26T10:14:25.701Z,94518.00
2023-04-26T10:15:25.692Z,94518.00
2023-04-26T10:16:25.710Z,94518.00
2023-04-26T10:17:25.730Z,94514.00
2023-04-26T10:18:25.674Z,94512.00
2023-04-26T10:19:25.792Z,94508.00
2023-04-26T10:20:25.919Z,94506.00
2023-04-26T10:21:25.853Z,94504.00
2023-04-26T10:22:25.927Z,94500.00
2023-04-26T10:23:25.980Z,94502.00
2023-04-26T10:24:26.053Z,94508.00
2023-04-26T10:25:26.059Z,94506.00
2023-04-26T10:26:26.207Z,94506.00
2023-04-26T10:27:26.223Z,94502.00
2023-04-26T10:28:26.234Z,94502.00
2023-04-26T10:29:26.423Z,94496.00
2023-04-26T10:30:26.377Z,94489.00
2023-04-26T10:31:26.570Z,94487.00
2023-04-26T10:32:26.500Z,94489.00
2023-04-26T10:33:26.588Z,94491.00
2023-04-26T10:34:27.564Z,94491.00
2023-04-26T10:35:26.651Z,94487.00
2023-04-26T10:36:27.500Z,94483.00
2023-04-26T10:37:26.775Z,94485.00
2023-04-26T10:38:26.936Z,94487.00
2023-04-26T10:39:27.608Z,94485.00
2023-04-26T10:40:26.977Z,94485.00
2023-04-26T10:41:26.995Z,94483.00
2023-04-26T10:42:27.418Z,94481.00
2023-04-26T10:43:27.114Z,94481.00
2023-04-26T10:44:27.156Z,94479.00
2023-04-26T10:45:27.248Z,94475.00
2023-04-26T10:46:27.327Z,94469.00
2023-04-26T10:47:27.470Z,94463.00
2023-04-26T10:48:27.380Z,94467.00
2023-04-26T10:49:27.425Z,94463.00
2023-04-26T10:50:27.528Z,94457.00
2023-04-26T10:51:27.590Z,94455.00
2023-04-26T10:52:27.614Z,94453.00
2023-04-26T10:53:27.684Z,94455.00
2023-04-26T10:54:27.891Z,94449.00
2023-04-26T10:55:27.801Z,94447.00
2023-04-26T10:56:27.875Z,94449.00
2023-04-26T10:57:27.920Z,94447.00
2023-04-26T10:58:27.988Z,94447.00
2023-04-26T10:59:43.501Z,94449.00
2023-04-26T11:00:31.349Z,94445.00
2023-04-26T11:01:28.060Z,94443.00
2023-04-26T11:02:28.083Z,94441.00
2023-04-26T11:03:28.156Z,94443.00
2023-04-26T11:04:28.085Z,94436.00
2023-04-26T11:05:28.005Z,94438.00
2023-04-26T11:06:28.031Z,94438.00
2023-04-26T11:07:27.992Z,94438.00
2023-04-26T11:08:27.996Z,94439.00
2023-04-26T11:09:27.980Z,94434.00
2023-04-26T11:10:27.953Z,94432.00
2023-04-26T11:11:27.977Z,94432.00
2023-04-26T11:12:27.968Z,94432.00
2023-04-26T11:13:27.933Z,94436.00
2023-04-26T11:14:27.969Z,94434.00
2023-04-26T11:15:27.975Z,94436.00
2023-04-26T11:16:28.008Z,94436.00
2023-04-26T11:17:27.971Z,94432.00
2023-04-26T11:18:27.923Z,94432.00
2023-04-26T11:19:27.973Z,94428.00
2023-04-26T11:20:27.927Z,94424.00
2023-04-26T11:21:28.080Z,94424.00
2023-04-26T11:22:27.897Z,94422.00
2023-04-26T11:23:27.950Z,94418.00
2023-04-26T11:24:27.992Z,94416.00
2023-04-26T11:25:28.059Z,94414.00
2023-04-26T11:26:28.237Z,94412.00
2023-04-26T11:27:28.155Z,94414.00
2023-04-26T11:28:28.190Z,94416.00
2023-04-26T11:29:28.246Z,94410.00
2023-04-26T11:30:28.309Z,94408.00
2023-04-26T11:31:28.329Z,94404.00
2023-04-26T11:32:28.420Z,94406.00
2023-04-26T11:33:28.496Z,94408.00
2023-04-26T11:34:28.560Z,94406.00
2023-04-26T11:35:28.643Z,94408.00
2023-04-26T11:36:29.043Z,94406.00
2023-04-26T11:37:28.697Z,94408.00
2023-04-26T11:38:28.752Z,94408.00
2023-04-26T11:39:28.851Z,94406.00
2023-04-26T11:40:28.960Z,94408.00
2023-04-26T11:41:29.032Z,94406.00
2023-04-26T11:42:28.996Z,94408.00
2023-04-26T11:43:29.180Z,94406.00
2023-04-26T11:44:29.140Z,94400.00
2023-04-26T11:45:29.230Z,94402.00